createdAt,value
2023-01-25T00:03:16.764Z,1001.5
2023-01-25T00:22:32.297Z,1001.4
2023-01-25T00:41:45.684Z,1001.3
2023-01-25T01:01:00.525Z,1001.1
2023-01-25T01:20:17.131Z,1000.9
2023-01-25T01:39:31.292Z,1001.1
2023-01-25T01:58:47.451Z,1001.1
2023-01-25T02:18:06.228Z,1000.9
2023-01-25T02:37:18.124Z,1000.9
2023-01-25T02:56:33.222Z,1000.7
2023-01-25T03:15:55.950Z,1000.7
2023-01-25T03:35:02.068Z,1000.5
2023-01-25T03:54:16.683Z,1000.5
2023-01-25T04:13:30.186Z,1000.3
2023-01-25T04:32:44.226Z,1000.1
2023-01-25T04:51:59.659Z,999.9
2023-01-25T05:11:15.177Z,999.8
2023-01-25T05:30:27.116Z,999.7
2023-01-25T05:49:41.940Z,999.7
2023-01-25T06:08:56.348Z,999.6
2023-01-25T06:28:11.771Z,999.5
2023-01-25T06:47:25.563Z,999.5
2023-01-25T07:06:40.138Z,999.4
2023-01-25T07:25:54.024Z,999.5
2023-01-25T07:45:10.092Z,999.4
2023-01-25T08:04:22.518Z,999.3
2023-01-25T08:23:36.467Z,999.4
2023-01-25T08:42:51.800Z,999.3
2023-01-25T09:02:06.374Z,999.1
2023-01-25T09:21:21.703Z,999
2023-01-25T09:40:34.315Z,998.8
2023-01-25T09:59:49.955Z,998.8
2023-01-25T10:19:05.754Z,998.5
2023-01-25T10:38:20.899Z,998.3
2023-01-25T10:57:36.587Z,998
2023-01-25T11:16:52.551Z,997.9
2023-01-25T11:36:06.944Z,997.6
2023-01-25T11:55:25.888Z,997.3
2023-01-25T12:14:34.652Z,996.7
2023-01-25T12:33:48.926Z,996.4
2023-01-25T12:53:03.884Z,996
2023-01-25T13:12:20.906Z,995.6
2023-01-25T13:31:53.705Z,995.4
2023-01-25T13:50:54.289Z,995
2023-01-25T14:10:11.545Z,994.9
2023-01-25T14:29:33.756Z,994.8
2023-01-25T14:48:38.862Z,994.5
2023-01-25T15:07:49.939Z,994.4
2023-01-25T15:27:05.938Z,994.2
2023-01-25T15:46:15.280Z,994
2023-01-25T16:05:29.835Z,993.8
2023-01-25T16:24:43.708Z,993.7
2023-01-25T16:43:57.537Z,993.8
2023-01-25T17:03:11.774Z,993.6
2023-01-25T17:22:26.169Z,993.5
2023-01-25T17:41:37.460Z,993.4
2023-01-25T18:01:14.030Z,993.2
2023-01-25T18:20:11.277Z,993.1
2023-01-25T18:39:27.627Z,993
2023-01-25T18:58:41.549Z,992.9
2023-01-25T19:17:56.880Z,992.7
2023-01-25T19:37:11.157Z,992.5
2023-01-25T19:56:24.758Z,992.1
2023-01-25T20:15:39.061Z,991.8
2023-01-25T20:34:54.366Z,991.5
2023-01-25T20:54:06.248Z,991.4
2023-01-25T21:13:17.873Z,991.4
2023-01-25T21:32:30.918Z,991.1
2023-01-25T21:51:45.272Z,991
2023-01-25T22:11:07.623Z,990.9
2023-01-25T22:30:17.250Z,990.9
2023-01-25T22:49:32.795Z,991
2023-01-25T23:08:44.713Z,990.8
2023-01-25T23:28:01.022Z,990.6
2023-01-25T23:47:15.885Z,990.4
